createdAt,value
2023-03-25T00:02:21.028Z,2.67
2023-03-25T00:04:55.273Z,2.67
2023-03-25T00:07:22.903Z,2.65
2023-03-25T00:09:50.458Z,2.92
2023-03-25T00:12:19.597Z,2.90
2023-03-25T00:14:55.411Z,2.72
2023-03-25T00:17:23.836Z,2.78
2023-03-25T00:19:52.123Z,2.55
2023-03-25T00:22:19.836Z,3.03
2023-03-25T00:24:47.098Z,2.60
2023-03-25T00:27:14.772Z,2.28
2023-03-25T00:29:42.338Z,3.45
2023-03-25T00:32:09.749Z,2.60
2023-03-25T00:34:41.947Z,2.60
2023-03-25T00:37:10.198Z,2.40
2023-03-25T00:39:38.098Z,2.38
2023-03-25T00:42:05.829Z,2.70
2023-03-25T00:44:33.148Z,2.30
2023-03-25T00:47:00.345Z,2.22
2023-03-25T00:49:28.757Z,2.60
2023-03-25T00:51:59.185Z,2.47
2023-03-25T00:54:26.428Z,2.22
2023-03-25T00:56:53.907Z,2.10
2023-03-25T00:59:21.133Z,2.30
2023-03-25T01:01:48.431Z,2.55
2023-03-25T01:04:16.823Z,2.22
2023-03-25T01:06:44.439Z,2.95
2023-03-25T01:09:13.822Z,3.38
2023-03-25T01:11:41.823Z,3.63
2023-03-25T01:14:11.741Z,3.55
2023-03-25T01:16:39.524Z,3.35
2023-03-25T01:19:06.770Z,3.22
2023-03-25T01:21:36.265Z,3.30
2023-03-25T01:24:04.275Z,3.53
2023-03-25T01:26:31.517Z,4.63
2023-03-25T01:28:58.752Z,4.70
2023-03-25T01:31:30.476Z,4.50
2023-03-25T01:33:58.292Z,4.20
2023-03-25T01:36:32.219Z,4.40
2023-03-25T01:39:01.456Z,5.13
2023-03-25T01:41:42.230Z,4.78
2023-03-25T01:44:20.632Z,5.32
2023-03-25T01:46:49.503Z,4.63
2023-03-25T01:49:26.530Z,4.55
2023-03-25T01:52:15.023Z,3.85
2023-03-25T01:54:42.924Z,3.97
2023-03-25T01:57:10.860Z,4.00
2023-03-25T01:59:38.943Z,3.78
2023-03-25T02:02:08.566Z,3.38
2023-03-25T02:04:39.348Z,4.03
2023-03-25T02:07:10.369Z,4.18
2023-03-25T02:09:37.889Z,4.28
2023-03-25T02:12:05.479Z,4.93
2023-03-25T02:14:33.930Z,4.82
2023-03-25T02:17:26.739Z,5.03
2023-03-25T02:20:23.427Z,5.03
2023-03-25T02:22:50.811Z,4.40
2023-03-25T02:25:19.269Z,4.28
2023-03-25T02:28:02.706Z,4.47
2023-03-25T02:33:06.521Z,4.35
2023-03-25T02:35:43.751Z,3.78
2023-03-25T02:38:19.392Z,4.25
2023-03-25T02:40:46.557Z,4.20
2023-03-25T02:43:13.751Z,3.78
2023-03-25T02:45:45.625Z,3.92
2023-03-25T02:48:15.757Z,3.53
2023-03-25T02:50:46.485Z,3.65
2023-03-25T02:53:19.437Z,3.58
2023-03-25T02:55:48.052Z,2.97
2023-03-25T02:58:18.102Z,3.28
2023-03-25T03:00:45.628Z,3.22
2023-03-25T03:03:14.184Z,3.15
2023-03-25T03:05:46.408Z,3.03
2023-03-25T03:08:29.021Z,3.03
2023-03-25T03:11:15.060Z,3.78
2023-03-25T03:13:42.249Z,3.22
2023-03-25T03:16:14.275Z,3.58
2023-03-25T03:19:03.234Z,3.75
2023-03-25T03:21:54.199Z,3.78
2023-03-25T03:24:31.055Z,3.40
2023-03-25T03:27:26.260Z,3.55
2023-03-25T03:29:54.918Z,3.15
2023-03-25T03:32:28.498Z,4.40
2023-03-25T03:34:57.999Z,3.35
2023-03-25T03:37:29.235Z,2.97
2023-03-25T03:39:58.144Z,2.97
2023-03-25T03:42:45.805Z,2.80
2023-03-25T03:45:33.475Z,3.15
2023-03-25T03:48:03.721Z,3.20
2023-03-25T03:50:33.326Z,4.15
2023-03-25T03:53:13.621Z,3.70
2023-03-25T03:55:43.779Z,3.95
2023-03-25T03:58:17.497Z,3.75
2023-03-25T04:00:59.390Z,3.58
2023-03-25T04:03:48.735Z,5.10
2023-03-25T04:06:21.205Z,4.75
2023-03-25T04:08:52.099Z,3.65
2023-03-25T04:11:22.634Z,3.92
2023-03-25T04:13:52.936Z,3.42
2023-03-25T04:16:20.332Z,3.58
2023-03-25T04:18:48.016Z,4.18
2023-03-25T04:21:15.340Z,2.85
2023-03-25T04:23:42.702Z,3.40
2023-03-25T04:26:10.127Z,3.47
2023-03-25T04:28:37.505Z,3.67
2023-03-25T04:31:07.517Z,4.20
2023-03-25T04:33:35.960Z,4.60
2023-03-25T04:36:03.777Z,4.95
2023-03-25T04:38:31.051Z,4.40
2023-03-25T04:40:58.401Z,4.30
2023-03-25T04:43:25.718Z,4.72
2023-03-25T04:45:55.281Z,5.28
2023-03-25T04:48:30.196Z,5.78
2023-03-25T04:50:59.121Z,5.13
2023-03-25T04:53:29.692Z,4.97
2023-03-25T04:55:57.228Z,4.30
2023-03-25T04:58:24.455Z,4.38
2023-03-25T05:00:54.770Z,3.78
2023-03-25T05:03:24.494Z,5.18
2023-03-25T05:05:52.874Z,4.95
2023-03-25T05:08:21.935Z,3.92
2023-03-25T05:10:49.627Z,4.75
2023-03-25T05:13:18.069Z,4.75
2023-03-25T05:15:45.332Z,4.20
2023-03-25T05:18:14.168Z,4.35
2023-03-25T05:20:42.202Z,4.07
2023-03-25T05:23:16.248Z,4.28
2023-03-25T05:25:43.802Z,3.80
2023-03-25T05:28:14.019Z,3.90
2023-03-25T05:30:43.405Z,3.72
2023-03-25T05:33:10.972Z,3.88
2023-03-25T05:35:38.662Z,3.63
2023-03-25T05:38:08.212Z,3.42
2023-03-25T05:40:36.210Z,3.72
2023-03-25T05:43:04.005Z,3.60
2023-03-25T05:45:31.264Z,3.97
2023-03-25T05:48:00.668Z,4.07
2023-03-25T05:50:28.903Z,3.40
2023-03-25T05:52:57.570Z,4.47
2023-03-25T05:55:25.540Z,4.38
2023-03-25T05:57:52.817Z,4.07
2023-03-25T06:00:23.537Z,4.60
2023-03-25T06:02:52.425Z,4.35
2023-03-25T06:05:23.863Z,4.80
2023-03-25T06:07:51.668Z,3.70
2023-03-25T06:10:19.108Z,3.80
2023-03-25T06:12:49.561Z,4.32
2023-03-25T06:15:18.345Z,4.50
2023-03-25T06:17:47.383Z,4.05
2023-03-25T06:20:16.772Z,4.57
2023-03-25T06:22:45.631Z,3.90
2023-03-25T06:25:22.899Z,4.30
2023-03-25T06:27:51.214Z,4.10
2023-03-25T06:30:19.864Z,4.28
2023-03-25T06:32:52.549Z,5.20
2023-03-25T06:35:26.032Z,4.25
2023-03-25T06:37:53.427Z,3.75
2023-03-25T06:43:06.221Z,4.05
2023-03-25T06:45:35.561Z,4.95
2023-03-25T06:48:07.211Z,4.90
2023-03-25T06:50:37.630Z,4.65
2023-03-25T06:55:41.526Z,6.60
2023-03-25T06:58:11.889Z,6.93
2023-03-25T07:26:04.489Z,3.30
2023-03-25T07:45:21.145Z,3.55
2023-03-25T07:56:08.813Z,4.35
2023-03-25T07:58:36.139Z,4.63
2023-03-25T08:01:03.525Z,4.82
2023-03-25T08:03:32.158Z,5.20
2023-03-25T08:06:02.471Z,6.20
2023-03-25T08:08:30.228Z,5.50
2023-03-25T08:10:57.563Z,6.28
2023-03-25T08:13:25.120Z,4.68
2023-03-25T08:15:52.664Z,4.43
2023-03-25T08:18:20.316Z,4.40
2023-03-25T08:20:48.828Z,5.43
2023-03-25T08:23:19.984Z,5.40
2023-03-25T08:25:51.690Z,4.50
2023-03-25T08:28:23.339Z,5.00
2023-03-25T08:30:55.138Z,4.28
2023-03-25T08:33:23.292Z,5.68
2023-03-25T08:35:51.408Z,3.58
2023-03-25T08:38:21.677Z,4.57
2023-03-25T08:40:49.170Z,4.18
2023-03-25T08:43:16.400Z,4.45
2023-03-25T08:45:43.634Z,4.78
2023-03-25T08:48:10.962Z,4.95
2023-03-25T08:50:38.230Z,3.90
2023-03-25T08:53:05.966Z,4.65
2023-03-25T08:55:33.195Z,4.53
2023-03-25T08:58:04.466Z,4.57
2023-03-25T09:00:32.460Z,4.53
2023-03-25T09:03:01.129Z,4.50
2023-03-25T09:05:28.563Z,4.53
2023-03-25T09:07:56.029Z,4.78
2023-03-25T09:10:23.733Z,4.50
2023-03-25T09:12:51.905Z,4.55
2023-03-25T09:15:19.656Z,4.93
2023-03-25T09:17:47.009Z,4.82
2023-03-25T09:20:14.779Z,4.47
2023-03-25T09:22:42.425Z,4.55
2023-03-25T09:25:11.423Z,5.20
2023-03-25T09:27:39.127Z,5.38
2023-03-25T09:30:06.763Z,4.43
2023-03-25T09:32:34.254Z,4.82
2023-03-25T09:35:01.726Z,4.95
2023-03-25T09:37:29.060Z,4.28
2023-03-25T09:39:57.669Z,4.88
2023-03-25T09:42:31.909Z,4.03
2023-03-25T09:45:18.565Z,3.95
2023-03-25T09:47:58.752Z,4.15
2023-03-25T09:50:26.316Z,4.07
2023-03-25T09:53:12.009Z,4.40
2023-03-25T09:55:43.863Z,4.07
2023-03-25T09:58:31.546Z,4.30
2023-03-25T10:01:06.410Z,4.57
2023-03-25T10:03:52.414Z,4.47
2023-03-25T10:06:21.014Z,4.22
2023-03-25T10:09:05.206Z,3.90
2023-03-25T10:12:13.523Z,5.15
2023-03-25T10:23:24.047Z,4.30
2023-03-25T10:31:38.646Z,3.90
2023-03-25T10:34:17.120Z,3.95
2023-03-25T10:36:52.488Z,3.85
2023-03-25T10:39:22.314Z,3.95
2023-03-25T10:42:06.841Z,4.70
2023-03-25T10:44:42.751Z,4.20
2023-03-25T10:52:48.572Z,5.43
2023-03-25T10:55:35.024Z,5.60
2023-03-25T10:58:13.772Z,5.95
2023-03-25T11:00:45.147Z,4.30
2023-03-25T11:03:23.609Z,4.13
2023-03-25T11:11:41.042Z,4.38
2023-03-25T11:14:18.745Z,4.05
2023-03-25T11:17:11.759Z,3.85
2023-03-25T11:19:42.558Z,4.32
2023-03-25T11:22:20.988Z,4.80
2023-03-25T11:24:50.123Z,4.15
2023-03-25T11:27:29.183Z,4.30
2023-03-25T11:30:37.230Z,4.00
2023-03-25T11:33:42.387Z,4.43
2023-03-25T11:36:31.664Z,4.03
2023-03-25T11:39:23.581Z,4.07
2023-03-25T11:41:59.445Z,2.80
2023-03-25T11:50:18.682Z,3.40
2023-03-25T11:53:13.650Z,2.55
2023-03-25T11:56:08.854Z,2.47
2023-03-25T11:58:40.827Z,3.10
2023-03-25T12:01:31.579Z,2.88
2023-03-25T12:07:32.482Z,2.90
2023-03-25T12:10:14.802Z,2.40
2023-03-25T12:12:42.779Z,3.13
2023-03-25T12:15:16.825Z,2.72
2023-03-25T12:17:59.716Z,2.80
2023-03-25T12:20:33.405Z,2.38
2023-03-25T12:23:05.391Z,2.83
2023-03-25T12:25:56.276Z,2.50
2023-03-25T12:28:38.759Z,3.22
2023-03-25T12:31:35.813Z,3.30
2023-03-25T12:36:48.921Z,3.40
2023-03-25T12:39:45.680Z,3.22
2023-03-25T12:43:14.246Z,3.75
2023-03-25T12:49:44.002Z,5.53
2023-03-25T12:52:17.144Z,6.15
2023-03-25T12:55:31.620Z,7.13
2023-03-25T12:58:13.747Z,8.45
2023-03-25T13:01:23.293Z,9.82
2023-03-25T13:03:55.955Z,9.43
2023-03-25T13:06:35.039Z,7.88
2023-03-25T13:09:35.297Z,6.70
2023-03-25T13:12:04.829Z,4.60
2023-03-25T13:14:37.002Z,3.47
2023-03-25T13:17:09.236Z,3.43
2023-03-25T13:19:41.313Z,3.17
2023-03-25T13:22:15.795Z,3.40
2023-03-25T13:25:12.519Z,3.40
2023-03-25T13:27:41.833Z,4.10
2023-03-25T13:30:24.175Z,4.18
2023-03-25T13:32:54.859Z,4.03
2023-03-25T13:35:41.655Z,2.83
2023-03-25T13:38:27.775Z,3.08
2023-03-25T13:41:01.161Z,3.40
2023-03-25T13:43:53.416Z,4.05
2023-03-25T13:46:22.848Z,4.43
2023-03-25T13:48:56.158Z,3.90
2023-03-25T13:51:24.138Z,4.30
2023-03-25T13:53:56.263Z,3.58
2023-03-25T13:56:32.851Z,3.37
2023-03-25T13:59:01.004Z,4.00
2023-03-25T14:01:28.999Z,4.13
2023-03-25T14:04:16.666Z,4.63
2023-03-25T14:06:57.872Z,3.90
2023-03-25T14:09:43.962Z,5.00
2023-03-25T14:12:20.412Z,3.80
2023-03-25T14:15:13.473Z,4.10
2023-03-25T14:18:04.791Z,5.00
2023-03-25T15:11:35.781Z,6.03
2023-03-25T15:14:05.264Z,6.35
2023-03-25T15:16:56.953Z,4.65
2023-03-25T15:19:24.466Z,5.60
2023-03-25T15:21:54.854Z,5.63
2023-03-25T15:24:25.399Z,5.03
2023-03-25T15:26:54.450Z,4.70
2023-03-25T15:29:22.064Z,4.82
2023-03-25T15:31:52.931Z,3.90
2023-03-25T15:34:27.131Z,4.20
2023-03-25T15:37:19.476Z,3.47
2023-03-25T15:40:17.764Z,4.70
2023-03-25T15:42:51.780Z,3.55
2023-03-25T15:45:37.474Z,3.38
2023-03-25T15:48:23.600Z,3.35
2023-03-25T15:51:20.338Z,2.35
2023-03-25T15:53:55.389Z,2.63
2023-03-25T15:56:28.609Z,2.22
2023-03-25T15:59:08.459Z,2.40
2023-03-25T16:01:40.449Z,2.20
2023-03-25T16:04:28.461Z,2.97
2023-03-25T16:06:58.646Z,2.10
2023-03-25T16:09:29.474Z,2.33
2023-03-25T16:12:30.574Z,2.53
2023-03-25T16:15:04.538Z,2.53
2023-03-25T16:17:34.381Z,2.80
2023-03-25T16:22:50.120Z,2.15
2023-03-25T16:28:15.134Z,2.60
2023-03-25T16:33:41.429Z,2.45
2023-03-25T16:36:30.922Z,2.65
2023-03-25T16:39:18.540Z,3.10
2023-03-25T16:41:58.866Z,2.28
2023-03-25T16:44:27.017Z,2.20
2023-03-25T16:46:54.797Z,2.38
2023-03-25T16:52:19.819Z,2.10
2023-03-25T16:54:57.035Z,2.10
2023-03-25T16:57:28.574Z,2.30
2023-03-25T16:59:59.104Z,2.10
2023-03-25T17:02:31.193Z,1.80
2023-03-25T17:05:16.088Z,1.83
2023-03-25T17:07:44.611Z,1.98
2023-03-25T17:10:22.892Z,2.58
2023-03-25T17:13:03.909Z,1.98
2023-03-25T17:15:36.165Z,2.35
2023-03-25T17:18:07.187Z,1.90
2023-03-25T17:20:39.557Z,2.35
2023-03-25T17:23:08.372Z,2.20
2023-03-25T17:25:37.021Z,2.15
2023-03-25T17:28:29.813Z,2.10
2023-03-25T17:30:57.455Z,2.03
2023-03-25T17:33:30.220Z,3.05
2023-03-25T17:35:57.674Z,2.72
2023-03-25T17:38:27.671Z,2.80
2023-03-25T17:40:59.104Z,3.58
2023-03-25T17:43:28.279Z,2.17
2023-03-25T17:45:58.944Z,2.00
2023-03-25T17:48:31.747Z,3.17
2023-03-25T17:51:01.925Z,2.22
2023-03-25T17:57:02.842Z,2.08
2023-03-25T18:02:58.033Z,1.85
2023-03-25T18:05:26.606Z,1.83
2023-03-25T18:08:01.560Z,2.17
2023-03-25T18:10:31.122Z,1.80
2023-03-25T18:13:10.403Z,1.50
2023-03-25T18:15:40.488Z,1.52
2023-03-25T18:18:08.318Z,1.98
2023-03-25T18:20:37.400Z,1.85
2023-03-25T18:23:12.010Z,3.50
2023-03-25T18:25:40.201Z,2.00
2023-03-25T18:28:13.434Z,2.55
2023-03-25T18:30:46.382Z,2.10
2023-03-25T18:33:23.681Z,2.13
2023-03-25T18:36:15.396Z,1.98
2023-03-25T18:38:46.778Z,2.15
2023-03-25T18:41:14.705Z,2.28
2023-03-25T18:43:49.254Z,1.70
2023-03-25T18:46:17.003Z,1.85
2023-03-25T18:48:56.860Z,2.40
2023-03-25T18:51:33.733Z,2.38
2023-03-25T18:54:07.012Z,2.75
2023-03-25T19:04:59.809Z,2.80
2023-03-25T19:07:29.766Z,2.60
2023-03-25T19:10:02.031Z,2.90
2023-03-25T19:12:33.825Z,2.63
2023-03-25T19:17:41.406Z,2.22
2023-03-25T19:20:22.243Z,2.67
2023-03-25T19:23:07.568Z,2.28
2023-03-25T19:25:34.920Z,2.80
2023-03-25T19:28:03.569Z,2.38
2023-03-25T19:30:51.444Z,2.00
2023-03-25T19:33:31.292Z,1.90
2023-03-25T19:36:01.508Z,1.73
2023-03-25T19:38:35.460Z,1.83
2023-03-25T19:49:38.707Z,1.95
2023-03-25T19:52:19.096Z,1.58
2023-03-25T20:05:59.603Z,2.33
2023-03-25T20:08:29.465Z,2.13
2023-03-25T20:11:05.987Z,2.03
2023-03-25T20:13:33.524Z,1.67
2023-03-25T20:24:22.083Z,1.92
2023-03-25T20:41:20.137Z,2.20
2023-03-25T20:43:47.792Z,2.03
2023-03-25T20:46:16.502Z,2.75
2023-03-25T20:48:44.022Z,2.30
2023-03-25T20:51:11.826Z,2.70
2023-03-25T20:53:40.465Z,2.47
2023-03-25T21:06:57.801Z,3.00
2023-03-25T21:09:50.376Z,2.85
2023-03-25T21:12:43.599Z,2.53
2023-03-25T21:15:13.247Z,3.10
2023-03-25T21:17:40.890Z,2.95
2023-03-25T21:20:09.331Z,3.60
2023-03-25T21:22:43.246Z,3.00
2023-03-25T21:25:11.355Z,3.70
2023-03-25T21:27:39.868Z,3.80
2023-03-25T21:30:09.954Z,2.92
2023-03-25T21:32:37.813Z,2.63
2023-03-25T21:35:05.358Z,2.53
2023-03-25T21:37:45.259Z,3.13
2023-03-25T21:40:12.858Z,4.03
2023-03-25T21:42:43.073Z,3.38
2023-03-25T21:45:12.400Z,3.22
2023-03-25T21:47:40.335Z,2.92
2023-03-25T21:50:12.040Z,3.50
2023-03-25T21:52:43.478Z,3.20
2023-03-25T21:55:12.880Z,2.80
2023-03-25T21:57:44.480Z,4.07
2023-03-25T22:00:15.575Z,3.70
2023-03-25T22:02:52.878Z,3.60
2023-03-25T22:05:20.588Z,3.67
2023-03-25T22:07:48.430Z,3.88
2023-03-25T22:10:18.113Z,2.92
2023-03-25T22:12:45.625Z,3.50
2023-03-25T22:15:13.142Z,3.35
2023-03-25T22:17:41.387Z,3.38
2023-03-25T22:20:10.284Z,3.80
2023-03-25T22:22:37.794Z,3.53
2023-03-25T22:25:10.246Z,4.00
2023-03-25T22:27:37.873Z,4.10
2023-03-25T22:30:06.519Z,4.78
2023-03-25T22:32:35.009Z,5.05
2023-03-25T22:35:02.998Z,4.60
2023-03-25T22:37:31.419Z,5.13
2023-03-25T22:39:58.827Z,4.03
2023-03-25T22:42:26.498Z,4.13
2023-03-25T22:44:53.970Z,5.18
2023-03-25T22:47:26.909Z,5.45
2023-03-25T22:49:54.314Z,3.63
2023-03-25T22:52:22.612Z,3.75
2023-03-25T22:54:51.485Z,4.28
2023-03-25T22:57:19.407Z,3.53
2023-03-25T22:59:50.093Z,4.35
2023-03-25T23:02:17.530Z,4.63
2023-03-25T23:04:45.993Z,5.03
2023-03-25T23:07:13.480Z,3.95
2023-03-25T23:09:44.310Z,4.78
2023-03-25T23:12:14.105Z,4.75
2023-03-25T23:14:43.552Z,5.35
2023-03-25T23:17:14.044Z,4.82
2023-03-25T23:19:41.586Z,3.95
2023-03-25T23:22:09.229Z,5.07
2023-03-25T23:24:37.654Z,5.68
2023-03-25T23:27:07.160Z,5.35
2023-03-25T23:29:39.634Z,6.90
2023-03-25T23:32:07.707Z,5.72
2023-03-25T23:34:37.169Z,7.45
2023-03-25T23:37:04.727Z,5.53
2023-03-25T23:39:33.450Z,5.55
2023-03-25T23:42:03.874Z,6.82
2023-03-25T23:44:44.197Z,5.35
2023-03-25T23:47:16.933Z,5.47
2023-03-25T23:49:44.734Z,7.80
2023-03-25T23:52:12.509Z,7.45
2023-03-25T23:54:40.305Z,5.47
2023-03-25T23:57:08.019Z,6.10
2023-03-25T23:59:35.420Z,5.60
